地図

経路データ

SID SEASON NUMBER BASIN SUBBASIN NAME ISO_TIME NATURE LAT LON WMO_WIND WMO_PRES WMO_AGENCY TRACK_TYPE DIST2LAND LANDFALL IFLAG USA_AGENCY USA_ATCF_ID USA_LAT USA_LON USA_RECORD USA_STATUS USA_WIND USA_PRES USA_SSHS USA_R34_NE USA_R34_SE USA_R34_SW USA_R34_NW USA_R50_NE USA_R50_SE USA_R50_SW USA_R50_NW USA_R64_NE USA_R64_SE USA_R64_SW USA_R64_NW USA_POCI USA_ROCI USA_RMW USA_EYE TOKYO_LAT TOKYO_LON TOKYO_GRADE TOKYO_WIND TOKYO_PRES TOKYO_R50_DIR TOKYO_R50_LONG TOKYO_R50_SHORT TOKYO_R30_DIR TOKYO_R30_LONG TOKYO_R30_SHORT TOKYO_LAND CMA_LAT CMA_LON CMA_CAT CMA_WIND CMA_PRES HKO_LAT HKO_LON HKO_CAT HKO_WIND HKO_PRES NEWDELHI_LAT NEWDELHI_LON NEWDELHI_GRADE NEWDELHI_WIND NEWDELHI_PRES NEWDELHI_CI NEWDELHI_DP NEWDELHI_POCI REUNION_LAT REUNION_LON REUNION_TYPE REUNION_WIND REUNION_PRES REUNION_TNUM REUNION_CI REUNION_RMW REUNION_R34_NE REUNION_R34_SE REUNION_R34_SW REUNION_R34_NW REUNION_R50_NE REUNION_R50_SE REUNION_R50_SW REUNION_R50_NW REUNION_R64_NE REUNION_R64_SE REUNION_R64_SW REUNION_R64_NW BOM_LAT BOM_LON BOM_TYPE BOM_WIND BOM_PRES BOM_TNUM BOM_CI BOM_RMW BOM_R34_NE BOM_R34_SE BOM_R34_SW BOM_R34_NW BOM_R50_NE BOM_R50_SE BOM_R50_SW BOM_R50_NW BOM_R64_NE BOM_R64_SE BOM_R64_SW BOM_R64_NW BOM_ROCI BOM_POCI BOM_EYE BOM_POS_METHOD BOM_PRES_METHOD NADI_LAT NADI_LON NADI_CAT NADI_WIND NADI_PRES WELLINGTON_LAT WELLINGTON_LON WELLINGTON_WIND WELLINGTON_PRES DS824_LAT DS824_LON DS824_STAGE DS824_WIND DS824_PRES TD9636_LAT TD9636_LON TD9636_STAGE TD9636_WIND TD9636_PRES TD9635_LAT TD9635_LON TD9635_WIND TD9635_PRES TD9635_ROCI NEUMANN_LAT NEUMANN_LON NEUMANN_CLASS NEUMANN_WIND NEUMANN_PRES MLC_LAT MLC_LON MLC_CLASS MLC_WIND MLC_PRES USA_GUST BOM_GUST BOM_GUST_PER REUNION_GUST REUNION_GUST_PER USA_SEAHGT USA_SEARAD_NE USA_SEARAD_SE USA_SEARAD_SW USA_SEARAD_NW STORM_SPEED STORM_DIR
1946275N33324 1946 57 NA NA NOT_NAMED 1946-10-01 12:00:00 TS 32.5000 -36.5000 30 hurdat_atl main 1940 1931 O_____________ hurdat_atl AL051946 32.5000 -36.5000 TD 30 -1 2 42
1946275N33324 1946 57 NA NA NOT_NAMED 1946-10-01 15:00:00 TS 32.5876 -36.4025 main 1933 1923 P_____________ AL051946 32.5876 -36.4025 TD 32 -1 3 40
1946275N33324 1946 57 NA NA NOT_NAMED 1946-10-01 18:00:00 TS 32.7000 -36.3000 35 hurdat_atl main 1925 1918 O_____________ hurdat_atl AL051946 32.7000 -36.3000 TS 35 0 3 35
1946275N33324 1946 57 NA NA NOT_NAMED 1946-10-01 21:00:00 TS 32.8499 -36.1800 main 1918 1904 P_____________ AL051946 32.8499 -36.1800 TS 37 0 4 40
1946275N33324 1946 57 NA NA NOT_NAMED 1946-10-02 00:00:00 TS 33.0000 -36.0000 40 hurdat_atl main 1904 1888 O_____________ hurdat_atl AL051946 33.0000 -36.0000 TS 40 0 4 56
1946275N33324 1946 57 NA NA NOT_NAMED 1946-10-02 03:00:00 TS 33.0999 -35.7448 main 1878 1853 P_____________ AL051946 33.0999 -35.7448 TS 42 0 5 68
1946275N33324 1946 57 NA NA NOT_NAMED 1946-10-02 06:00:00 TS 33.2000 -35.4000 45 hurdat_atl main 1853 1820 O_____________ hurdat_atl AL051946 33.2000 -35.4000 TS 45 0 7 68
1946275N33324 1946 57 NA NA NOT_NAMED 1946-10-02 09:00:00 TS 33.3498 -34.9951 main 1820 1780 P_____________ AL051946 33.3498 -34.9951 TS 47 0 8 68
1946275N33324 1946 57 NA NA NOT_NAMED 1946-10-02 12:00:00 TS 33.5000 -34.5000 50 hurdat_atl main 1780 1738 O_____________ hurdat_atl AL051946 33.5000 -34.5000 TS 50 0 9 74
1946275N33324 1946 57 NA NA NOT_NAMED 1946-10-02 15:00:00 TS 33.6071 -33.9447 main 1729 1679 P_____________ AL051946 33.6071 -33.9447 TS 50 0 10 79
1946275N33324 1946 57 NA NA NOT_NAMED 1946-10-02 18:00:00 TS 33.7000 -33.3000 50 hurdat_atl main 1679 1620 O_____________ hurdat_atl AL051946 33.7000 -33.3000 TS 50 0 12 81
1946275N33324 1946 57 NA NA NOT_NAMED 1946-10-02 21:00:00 TS 33.7924 -32.5722 main 1620 1554 P_____________ AL051946 33.7924 -32.5722 TS 50 0 13 81
1946275N33324 1946 57 NA NA NOT_NAMED 1946-10-03 00:00:00 TS 33.9000 -31.8000 50 hurdat_atl main 1554 1489 O_____________ hurdat_atl AL051946 33.9000 -31.8000 TS 50 0 13 79
1946275N33324 1946 57 NA NA NOT_NAMED 1946-10-03 03:00:00 TS 34.0428 -30.9977 main 1489 1438 P_____________ AL051946 34.0428 -30.9977 TS 50 0 13 76
1946275N33324 1946 57 NA NA NOT_NAMED 1946-10-03 06:00:00 TS 34.2000 -30.3000 50 hurdat_atl main 1438 1401 O_____________ hurdat_atl AL051946 34.2000 -30.3000 TS 50 0 10 73
1946275N33324 1946 57 NA NA NOT_NAMED 1946-10-03 09:00:00 TS 34.3345 -29.8097 main 1401 1386 P_____________ AL051946 34.3345 -29.8097 TS 52 0 7 66
1946275N33324 1946 57 NA NA NOT_NAMED 1946-10-03 12:00:00 ET 34.5000 -29.5000 55 hurdat_atl main 1386 1375 O_____________ hurdat_atl AL051946 34.5000 -29.5000 EX 55 -4 6 47
1946275N33324 1946 57 NA NA NOT_NAMED 1946-10-03 15:00:00 ET 34.7273 -29.2900 main 1380 1377 P_____________ AL051946 34.7273 -29.2900 EX 57 -4 6 26
1946275N33324 1946 57 NA NA NOT_NAMED 1946-10-03 18:00:00 ET 35.0000 -29.2000 60 hurdat_atl main 1388 1388 O_____________ hurdat_atl AL051946 35.0000 -29.2000 EX 60 -4 6 9
1946275N33324 1946 57 NA NA NOT_NAMED 1946-10-03 21:00:00 ET 35.2850 -29.1773 main 1404 1404 P_____________ AL051946 35.2850 -29.1773 EX 62 -4 6 1
1946275N33324 1946 57 NA NA NOT_NAMED 1946-10-04 00:00:00 ET 35.6000 -29.2000 65 hurdat_atl main 1421 1421 O_____________ hurdat_atl AL051946 35.6000 -29.2000 EX 65 -4 7 0
1946275N33324 1946 57 NA NA NOT_NAMED 1946-10-04 03:00:00 ET 35.9425 -29.1778 main 1439 1439 P_____________ AL051946 35.9425 -29.1778 EX 67 -4 7 0
1946275N33324 1946 57 NA NA NOT_NAMED 1946-10-04 06:00:00 ET 36.3000 -29.2000 70 hurdat_atl main 1463 1463 O_____________ hurdat_atl AL051946 36.3000 -29.2000 EX 70 -4 7 350
1946275N33324 1946 57 NA NA NOT_NAMED 1946-10-04 09:00:00 ET 36.6501 -29.3347 main 1496 1496 P_____________ AL051946 36.6501 -29.3347 EX 72 -4 7 341
1946275N33324 1946 57 NA NA NOT_NAMED 1946-10-04 12:00:00 ET 37.0000 -29.5000 75 hurdat_atl main 1530 1530 O_____________ hurdat_atl AL051946 37.0000 -29.5000 EX 75 -4 8 342
1946275N33324 1946 57 NA NA NOT_NAMED 1946-10-04 15:00:00 ET 37.3650 -29.6225 main 1563 1563 P_____________ AL051946 37.3650 -29.6225 EX 77 -4 7 347
1946275N33324 1946 57 NA NA NOT_NAMED 1946-10-04 18:00:00 ET 37.7000 -29.7000 80 hurdat_atl main 1590 1590 O_____________ hurdat_atl AL051946 37.7000 -29.7000 EX 80 -4 6 352
1946275N33324 1946 57 NA NA NOT_NAMED 1946-10-04 21:00:00 ET 37.9575 -29.7300 main 1611 1611 P_____________ AL051946 37.9575 -29.7300 EX 80 -4 5 2
1946275N33324 1946 57 NA NA NOT_NAMED 1946-10-05 00:00:00 ET 38.2000 -29.7000 80 hurdat_atl main 1625 1625 O_____________ hurdat_atl AL051946 38.2000 -29.7000 EX 80 -4 5 8
1946275N33324 1946 57 NA NA NOT_NAMED 1946-10-05 03:00:00 ET 38.4849 -29.6373 main 1639 1639 P_____________ AL051946 38.4849 -29.6373 EX 77 -4 6 15
1946275N33324 1946 57 NA NA NOT_NAMED 1946-10-05 06:00:00 ET 38.8000 -29.5000 75 hurdat_atl main 1655 1655 O_____________ hurdat_atl AL051946 38.8000 -29.5000 EX 75 -4 7 23
1946275N33324 1946 57 NA NA NOT_NAMED 1946-10-05 09:00:00 ET 39.1200 -29.2871 main 1664 1664 P_____________ AL051946 39.1200 -29.2871 EX 72 -4 8 29
1946275N33324 1946 57 NA NA NOT_NAMED 1946-10-05 12:00:00 ET 39.5000 -29.0000 70 hurdat_atl main 1675 1642 O_____________ hurdat_atl AL051946 39.5000 -29.0000 EX 70 -4 10 29
1946275N33324 1946 57 NA NA NOT_NAMED 1946-10-05 15:00:00 ET 39.9625 -28.6721 main 1639 1591 P_____________ AL051946 39.9625 -28.6721 EX 67 -4 11 28
1946275N33324 1946 57 NA NA NOT_NAMED 1946-10-05 18:00:00 ET 40.5000 -28.3000 65 hurdat_atl main 1591 1544 O_____________ hurdat_atl AL051946 40.5000 -28.3000 EX 65 -4 13 27
1946275N33324 1946 57 NA NA NOT_NAMED 1946-10-05 21:00:00 ET 41.0773 -27.9216 main 1541 1494 P_____________ AL051946 41.0773 -27.9216 EX 62 -4 13 27
1946275N33324 1946 57 NA NA NOT_NAMED 1946-10-06 00:00:00 ET 41.7000 -27.5000 60 hurdat_atl main 1494 1441 O_____________ hurdat_atl AL051946 41.7000 -27.5000 EX 60 -4 14 28
1946275N33324 1946 57 NA NA NOT_NAMED 1946-10-06 03:00:00 ET 42.3455 -27.0199 main 1441 1391 P_____________ AL051946 42.3455 -27.0199 EX 57 -4 15 30
1946275N33324 1946 57 NA NA NOT_NAMED 1946-10-06 06:00:00 ET 43.0000 -26.5000 55 hurdat_atl main 1391 O_____________ hurdat_atl AL051946 43.0000 -26.5000 EX 55 -4 15 30

IBTrACS Databaseについて

本データベースは、米国NOAAが公開する1842年以降の世界の熱帯低気圧のベストトラックデータアーカイブInternational Best Track Archive for Climate Stewardship (IBTrACS)を、ウェブで閲覧しやすい形式に変換したものです。

最終更新日:2021-10-25